Time;durP1;ratioP1;P1;durP2;ratioP2;P2;SDS_P1;SDS_P2;PMS_P1;PMS_P2;Temp;Humidity;BMP_temperature;BMP_pressure;BME280_temperature;BME280_humidity;BME280_pressure;Samples;Min_cycle;Max_cycle;Signal;HPM_P1;HPM_P2
2022/02/05 00:03:05;;;;;;;36.13;9.85;;;;;;;8.83;100.00;101380.38;4975986;28;20535;-68
2022/02/05 00:40:48;;;;;;;56.25;14.02;;;;;;;8.21;100.00;101403.03;4974935;28;20047;-67
2022/02/05 00:43:16;;;;;;;48.05;13.77;;;;;;;8.44;100.00;101412.03;4975080;28;20053;-66
2022/02/05 00:45:48;;;;;;;52.72;15.95;;;;;;;8.32;100.00;101408.06;4975014;28;20074;-66
2022/02/05 00:48:14;;;;;;;29.30;8.93;;;;;;;8.66;100.00;101407.06;4974564;28;20046;-66
2022/02/05 00:50:45;;;;;;;36.50;10.93;;;;;;;8.30;100.00;101413.53;4957109;28;20054;-67
2022/02/05 00:53:21;;;;;;;46.10;11.57;;;;;;;8.13;100.00;101411.88;4974780;28;20042;-67
2022/02/05 00:55:53;;;;;;;43.72;13.52;;;;;;;8.40;100.00;101412.53;4958318;28;20480;-67
2022/02/05 00:58:19;;;;;;;47.22;13.95;;;;;;;8.51;100.00;101420.25;4974612;28;20491;-68
2022/02/05 01:00:44;;;;;;;36.90;9.50;;;;;;;8.44;100.00;101424.56;4974564;28;20069;-68
2022/02/05 01:03:10;;;;;;;50.38;12.20;;;;;;;8.17;100.00;101416.72;4974091;28;20117;-67
2022/02/05 01:05:36;;;;;;;53.03;13.93;;;;;;;8.38;100.00;101415.38;4974537;28;20399;-68
2022/02/05 01:08:03;;;;;;;39.22;11.85;;;;;;;8.30;100.00;101426.03;4974420;28;20057;-65
2022/02/05 01:10:29;;;;;;;53.30;14.53;;;;;;;8.26;100.00;101428.22;4957565;28;20077;-67
2022/02/05 01:13:00;;;;;;;56.42;16.90;;;;;;;8.43;100.00;101426.38;4974556;28;20499;-68
2022/02/05 01:15:32;;;;;;;45.30;13.68;;;;;;;8.46;100.00;101430.56;4958708;28;20494;-68
2022/02/05 01:18:02;;;;;;;57.47;14.45;;;;;;;8.36;100.00;101437.84;4974463;28;20487;-68
2022/02/05 01:22:56;;;;;;;57.00;15.43;;;;;;;8.26;100.00;101446.88;4975051;28;20476;-67
2022/02/05 01:25:26;;;;;;;31.63;8.80;;;;;;;8.38;100.00;101458.03;4974387;28;20510;-68
2022/02/05 01:28:01;;;;;;;25.35;8.50;;;;;;;8.51;100.00;101456.72;4974380;28;20053;-67
2022/02/05 01:30:31;;;;;;;21.67;4.63;;;;;;;8.29;100.00;101451.84;4974738;28;20497;-67
2022/02/05 01:53:02;;;;;;;10.88;2.10;;;;;;;8.21;100.00;101482.97;4978138;28;20050;-66
2022/02/05 01:57:52;;;;;;;11.80;2.13;;;;;;;8.61;100.00;101492.06;4963447;28;20515;-67
2022/02/05 02:06:47;;;;;;;10.65;2.03;;;;;;;8.20;100.00;101494.63;4977603;28;20546;-67
2022/02/05 02:11:35;;;;;;;10.85;1.88;;;;;;;8.40;100.00;101508.50;4962885;28;20526;-66
2022/02/05 02:22:47;;;;;;;11.00;2.17;;;;;;;8.14;100.00;101526.28;4884922;29;20139;-67
2022/02/05 02:32:42;;;;;;;12.32;3.40;;;;;;;8.25;100.00;101533.13;4977295;28;20042;-66
2022/02/05 02:35:14;;;;;;;13.77;2.92;;;;;;;8.18;100.00;101548.94;4977260;28;20492;-66
2022/02/05 02:40:47;;;;;;;6.85;1.95;;;;;;;8.24;100.00;101546.59;4927855;28;20407;-66
2022/02/05 02:43:18;;;;;;;10.75;2.45;;;;;;;8.40;100.00;101533.31;4959937;28;20431;-66
2022/02/05 02:45:45;;;;;;;13.30;2.08;;;;;;;8.32;100.00;101542.13;4960131;28;20078;-66
2022/02/05 02:48:12;;;;;;;19.60;2.63;;;;;;;8.29;100.00;101549.59;4976908;28;20061;-66
2022/02/05 02:58:54;;;;;;;16.52;2.42;;;;;;;8.25;100.00;101564.25;4976781;28;20035;-67
2022/02/05 03:01:21;;;;;;;10.35;2.40;;;;;;;8.18;100.00;101564.91;4976900;28;20039;-65
2022/02/05 03:03:46;;;;;;;;;;;;;;;7.97;100.00;101568.03;4959940;28;20046;-66
2022/02/05 03:06:13;;;;;;;12.67;2.87;;;;;;;8.25;100.00;101566.94;4943567;28;20479;-66
2022/02/05 03:08:39;;;;;;;13.05;3.03;;;;;;;8.30;100.00;101570.78;4959538;28;20395;-66
2022/02/05 03:11:05;;;;;;;13.07;1.95;;;;;;;8.15;100.00;101580.38;4943789;28;20444;-65
2022/02/05 03:13:31;;;;;;;13.13;3.00;;;;;;;8.07;100.00;101575.03;4959412;28;20051;-66
2022/02/05 03:15:57;;;;;;;18.58;2.20;;;;;;;8.36;100.00;101576.44;4943395;28;20515;-67
2022/02/05 03:18:44;;;;;;;15.35;2.58;;;;;;;8.18;100.00;101577.38;4959787;28;20043;-65
2022/02/05 03:21:09;;;;;;;18.27;2.45;;;;;;;8.44;100.00;101579.97;4977452;28;20473;-66
2022/02/05 03:23:35;;;;;;;15.32;2.20;;;;;;;8.14;100.00;101581.38;4976281;28;20050;-66
2022/02/05 03:26:01;;;;;;;11.93;2.20;;;;;;;8.01;100.00;101585.34;4976310;28;20495;-66
2022/02/05 03:28:27;;;;;;;15.25;2.08;;;;;;;7.93;100.00;101590.63;4977231;28;20542;-65
2022/02/05 03:30:53;;;;;;;11.73;1.92;;;;;;;7.98;100.00;101591.00;4944094;28;20082;-66
2022/02/05 03:33:19;;;;;;;12.00;2.00;;;;;;;7.93;100.00;101590.63;4943112;28;20468;-66
2022/02/05 03:35:45;;;;;;;15.50;1.98;;;;;;;7.98;100.00;101590.16;4976490;28;20487;-68
2022/02/05 03:38:10;;;;;;;21.08;2.50;;;;;;;8.03;100.00;101603.81;4958855;28;20039;-66
2022/02/05 03:40:35;;;;;;;17.83;2.53;;;;;;;8.08;100.00;101590.03;4958110;28;20514;-71
2022/02/05 03:43:01;;;;;;;9.30;2.00;;;;;;;8.14;100.00;101598.22;4975617;28;20129;-71
2022/02/05 03:45:27;;;;;;;12.27;2.10;;;;;;;8.31;100.00;101595.63;4975041;28;20095;-70
2022/02/05 03:47:52;;;;;;;14.30;3.05;;;;;;;8.16;100.00;101598.88;4975244;28;20400;-70
2022/02/05 03:50:19;;;;;;;13.50;2.25;;;;;;;8.52;100.00;101602.34;4941076;28;20054;-70
2022/02/05 03:52:45;;;;;;;15.93;3.38;;;;;;;8.27;100.00;101600.44;4958078;28;20420;-70
2022/02/05 03:55:11;;;;;;;11.05;1.77;;;;;;;8.34;100.00;101605.94;4957910;28;20491;-70
2022/02/05 03:57:37;;;;;;;12.90;1.90;;;;;;;8.23;100.00;101606.22;4974795;28;20089;-71
2022/02/05 04:00:07;;;;;;;11.95;2.10;;;;;;;8.43;100.00;101604.97;4974951;28;20486;-70
2022/02/05 04:02:33;;;;;;;14.82;2.65;;;;;;;8.43;100.00;101610.28;4974707;28;20082;-71
2022/02/05 04:04:59;;;;;;;16.58;2.28;;;;;;;8.31;100.00;101607.09;4974973;28;20263;-71
2022/02/05 04:07:28;;;;;;;8.75;1.80;;;;;;;8.45;100.00;101621.63;4974502;28;20059;-70
2022/02/05 04:09:58;;;;;;;21.42;2.20;;;;;;;8.35;100.00;101618.28;4974461;28;20204;-71
2022/02/05 04:17:53;;;;;;;18.42;2.45;;;;;;;8.44;100.00;101617.28;4957300;28;20605;-71
2022/02/05 04:20:19;;;;;;;10.40;1.75;;;;;;;8.29;100.00;101616.22;4978589;28;20051;-70
2022/02/05 04:22:45;;;;;;;16.40;3.00;;;;;;;8.06;100.00;101618.66;4976133;28;20043;-70
2022/02/05 04:25:11;;;;;;;10.15;1.80;;;;;;;8.20;100.00;101614.56;4972968;28;20082;-69
2022/02/05 04:27:38;;;;;;;19.97;1.90;;;;;;;7.92;100.00;101620.09;4956798;28;20487;-70
2022/02/05 04:30:05;;;;;;;11.07;1.80;;;;;;;8.38;100.00;101617.94;4956769;28;20622;-69
2022/02/05 04:32:30;;;;;;;13.80;2.58;;;;;;;8.26;100.00;101621.88;4972699;28;20047;-70
2022/02/05 04:34:56;;;;;;;15.18;2.55;;;;;;;8.04;100.00;101637.44;4973963;28;20046;-70
2022/02/05 04:37:25;;;;;;;15.80;2.47;;;;;;;7.96;100.00;101640.09;4956332;28;20506;-71
2022/02/05 04:40:04;;;;;;;20.58;2.85;;;;;;;8.17;100.00;101645.84;4972676;28;20323;-70
2022/02/05 04:42:42;;;;;;;13.13;3.55;;;;;;;7.97;100.00;101649.75;4956963;28;20090;-70
2022/02/05 04:45:37;;;;;;;10.23;2.05;;;;;;;8.27;100.00;101647.53;4973811;28;20479;-69
2022/02/05 04:48:28;;;;;;;14.30;3.17;;;;;;;8.13;100.00;101652.50;4959159;28;20051;-71
2022/02/05 04:56:11;;;;;;;6.60;1.80;;;;;;;8.31;100.00;101649.75;4973670;28;20042;-70
2022/02/05 05:21:39;;;;;;;17.27;2.58;;;;;;;8.63;100.00;101674.03;4956932;28;20515;-69
2022/02/05 05:24:05;;;;;;;17.65;3.55;;;;;;;8.58;100.00;101677.19;4973552;28;20129;-69
2022/02/05 05:26:30;;;;;;;20.98;4.50;;;;;;;8.40;100.00;101685.25;4955796;28;20035;-66
2022/02/05 05:28:56;;;;;;;11.73;1.73;;;;;;;8.45;100.00;101682.94;4955328;28;20043;-69
2022/02/05 05:31:21;;;;;;;12.97;2.30;;;;;;;8.61;100.00;101684.03;4939602;28;20288;-67
2022/02/05 05:33:47;;;;;;;10.77;1.67;;;;;;;8.38;100.00;101689.91;4939556;28;20186;-69
2022/02/05 05:36:12;;;;;;;11.33;2.07;;;;;;;8.40;100.00;101692.41;4939818;28;20109;-69
2022/02/05 05:38:38;;;;;;;11.00;1.95;;;;;;;8.25;100.00;101698.34;4973772;28;20772;-69
2022/02/05 05:41:03;;;;;;;12.00;1.53;;;;;;;8.74;100.00;101694.25;4972876;28;20505;-69
2022/02/05 05:46:16;;;;;;;12.75;1.60;;;;;;;8.22;100.00;101703.16;4979608;28;20479;-69
2022/02/05 05:48:55;;;;;;;13.57;1.92;;;;;;;8.39;100.00;101699.59;4980011;28;20417;-70
2022/02/05 05:51:21;;;;;;;14.60;2.35;;;;;;;8.27;100.00;101700.84;4977739;28;20399;-69
2022/02/05 05:53:46;;;;;;;14.57;2.08;;;;;;;8.13;100.00;101700.47;4973507;28;20049;-69
2022/02/05 05:56:12;;;;;;;15.40;2.63;;;;;;;8.42;100.00;101704.59;4940085;28;20050;-69
2022/02/05 05:58:38;;;;;;;11.43;1.60;;;;;;;7.98;100.00;101707.34;4972990;28;20326;-68
2022/02/05 06:01:03;;;;;;;14.30;1.70;;;;;;;7.90;100.00;101710.78;4955937;28;20407;-70
2022/02/05 06:03:30;;;;;;;15.20;2.28;;;;;;;8.04;100.00;101707.56;4973041;28;20051;-68
2022/02/05 06:05:55;;;;;;;12.20;2.17;;;;;;;8.07;100.00;101717.06;4955497;28;20621;-72
2022/02/05 06:08:21;;;;;;;20.33;2.93;;;;;;;7.76;100.00;101717.53;4955394;28;20047;-70
2022/02/05 06:10:47;;;;;;;11.80;4.05;;;;;;;8.13;100.00;101711.13;4971452;28;20490;-69
2022/02/05 06:13:13;;;;;;;9.88;2.00;;;;;;;7.94;100.00;101716.66;4939492;28;20047;-70
2022/02/05 06:15:41;;;;;;;10.95;2.30;;;;;;;7.79;100.00;101716.38;4955308;28;20552;-70
2022/02/05 06:18:08;;;;;;;15.77;2.50;;;;;;;7.67;100.00;101724.59;4972553;28;20437;-68
2022/02/05 06:20:33;;;;;;;11.68;2.60;;;;;;;7.85;100.00;101718.41;4955682;28;20413;-69
2022/02/05 06:22:59;;;;;;;18.17;3.78;;;;;;;7.99;100.00;101725.84;4972663;28;20081;-69
2022/02/05 06:25:25;;;;;;;10.18;2.08;;;;;;;7.72;100.00;101718.81;4975064;28;20054;-66
2022/02/05 06:27:50;;;;;;;24.15;3.67;;;;;;;8.41;100.00;101724.25;4958995;28;20472;-69
2022/02/05 06:30:16;;;;;;;12.67;2.40;;;;;;;8.11;100.00;101723.75;4979724;28;20053;-69
2022/02/05 06:32:42;;;;;;;12.97;2.47;;;;;;;8.40;100.00;101735.91;4960268;28;20045;-70
2022/02/05 06:35:08;;;;;;;18.00;2.03;;;;;;;8.05;100.00;101732.34;4976443;28;20145;-69
2022/02/05 06:37:33;;;;;;;19.05;3.88;;;;;;;8.06;100.00;101728.69;4958340;28;20290;-70
2022/02/05 06:39:59;;;;;;;13.33;3.80;;;;;;;8.39;100.00;101731.56;4959950;28;20161;-70
2022/02/05 06:42:24;;;;;;;21.00;2.92;;;;;;;8.10;100.00;101727.41;4960796;28;20039;-69
2022/02/05 06:44:50;;;;;;;12.30;2.40;;;;;;;8.20;100.00;101731.78;4958697;28;20074;-69
2022/02/05 06:47:16;;;;;;;15.15;3.08;;;;;;;8.08;100.00;101729.41;4942315;28;20303;-70
2022/02/05 06:49:42;;;;;;;16.43;3.07;;;;;;;7.99;100.00;101731.19;4957786;28;20101;-68
2022/02/05 06:52:10;;;;;;;11.07;3.03;;;;;;;8.08;100.00;101745.41;4975677;28;20051;-70
2022/02/05 06:54:36;;;;;;;25.15;4.00;;;;;;;7.98;100.00;101744.63;4975481;28;20489;-69
2022/02/05 06:57:01;;;;;;;14.25;2.47;;;;;;;8.09;100.00;101752.41;4942198;28;20403;-69
2022/02/05 06:59:27;;;;;;;15.93;2.53;;;;;;;7.91;100.00;101755.06;4975674;28;20121;-67
2022/02/05 07:01:52;;;;;;;10.02;2.47;;;;;;;8.32;100.00;101767.84;4975149;28;20070;-69
2022/02/05 07:04:23;;;;;;;19.47;3.00;;;;;;;8.10;100.00;101754.06;4957917;28;20038;-70
2022/02/05 07:06:50;;;;;;;16.17;2.70;;;;;;;7.97;100.00;101761.63;4957858;28;20046;-70
2022/02/05 07:09:16;;;;;;;13.88;3.75;;;;;;;8.21;100.00;101757.44;4975231;28;20058;-69
2022/02/05 07:11:41;;;;;;;19.02;3.03;;;;;;;8.14;100.00;101755.41;4946911;28;20074;-68
2022/02/05 07:14:09;;;;;;;20.53;2.87;;;;;;;8.29;100.00;101765.47;4983706;28;20109;-68
2022/02/05 07:16:39;;;;;;;12.50;2.55;;;;;;;8.02;100.00;101761.97;4959375;28;20428;-67
2022/02/05 07:19:36;;;;;;;22.95;3.25;;;;;;;7.72;100.00;101764.09;4958022;28;20518;-70
2022/02/05 07:22:02;;;;;;;11.52;2.50;;;;;;;8.13;100.00;101769.72;4974951;28;20034;-70
2022/02/05 07:29:52;;;;;;;18.20;2.92;;;;;;;8.30;100.00;101788.47;4974818;28;20053;-68
2022/02/05 07:32:18;;;;;;;10.43;3.08;;;;;;;8.17;100.00;101797.72;4974650;28;20042;-69
2022/02/05 07:34:43;;;;;;;25.02;4.75;;;;;;;8.07;100.00;101790.81;4957243;28;20038;-68
2022/02/05 07:37:09;;;;;;;7.47;3.25;;;;;;;7.93;100.00;101798.38;4973372;28;20524;-69
2022/02/05 07:39:43;;;;;;;7.28;2.63;;;;;;;7.95;100.00;101799.06;4957413;28;20038;-70
2022/02/05 07:42:09;;;;;;;12.50;3.17;;;;;;;8.40;100.00;101797.22;4957066;28;20046;-69
2022/02/05 07:44:35;;;;;;;12.40;3.03;;;;;;;8.19;100.00;101792.25;4973206;28;20450;-69
2022/02/05 07:47:01;;;;;;;13.63;3.00;;;;;;;8.23;100.00;101790.94;4957147;28;20063;-69
2022/02/05 07:49:35;;;;;;;14.18;2.97;;;;;;;8.13;100.00;101800.84;4956993;28;20484;-69
2022/02/05 07:52:00;;;;;;;13.18;2.85;;;;;;;7.89;100.00;101787.22;4957318;28;20503;-69
2022/02/05 07:54:26;;;;;;;10.90;2.93;;;;;;;8.15;100.00;101799.72;4958090;28;20049;-69
2022/02/05 07:56:52;;;;;;;18.07;3.87;;;;;;;8.59;100.00;101806.84;4957505;28;20046;-68
2022/02/05 07:59:18;;;;;;;20.35;3.80;;;;;;;8.31;100.00;101804.31;4941179;28;20312;-69
2022/02/05 08:01:45;;;;;;;17.27;4.35;;;;;;;8.10;100.00;101802.03;4974521;28;20472;-69
2022/02/05 08:04:11;;;;;;;16.15;3.22;;;;;;;8.15;100.00;101807.72;4974157;28;20492;-69
2022/02/05 08:06:37;;;;;;;14.77;3.28;;;;;;;8.51;100.00;101804.16;4974661;28;20080;-68
2022/02/05 08:09:12;;;;;;;13.70;2.80;;;;;;;8.02;100.00;101804.59;4974121;28;20475;-70
2022/02/05 08:11:43;;;;;;;7.30;2.55;;;;;;;8.31;100.00;101796.31;4973933;28;20049;-70
2022/02/05 08:14:11;;;;;;;13.70;3.20;;;;;;;8.60;100.00;101802.34;4974331;28;20513;-70
2022/02/05 08:19:33;;;;;;;13.82;3.15;;;;;;;8.34;100.00;101792.53;4957302;28;20440;-69
2022/02/05 08:21:58;;;;;;;15.30;2.70;;;;;;;8.35;100.00;101802.19;4956713;28;20081;-67
2022/02/05 08:24:24;;;;;;;13.73;2.60;;;;;;;8.68;100.00;101802.41;4957056;28;20346;-68
2022/02/05 08:26:49;;;;;;;13.23;2.97;;;;;;;8.75;100.00;101795.41;4940695;28;20042;-68
2022/02/05 08:29:17;;;;;;;13.43;2.42;;;;;;;8.85;100.00;101802.47;4973665;28;20292;-70
2022/02/05 08:31:43;;;;;;;13.93;3.40;;;;;;;8.99;100.00;101799.19;4973478;28;20475;-71
2022/02/05 08:34:09;;;;;;;13.70;2.50;;;;;;;9.11;100.00;101789.06;4956119;28;20050;-70
2022/02/05 08:36:45;;;;;;;15.25;3.03;;;;;;;9.11;100.00;101794.41;4972904;28;20202;-70
2022/02/05 08:39:13;;;;;;;9.57;2.67;;;;;;;9.17;100.00;101803.59;4978226;28;20118;-69
2022/02/05 08:41:40;;;;;;;21.92;4.03;;;;;;;9.12;100.00;101808.56;4959043;28;20407;-69
2022/02/05 08:44:06;;;;;;;13.52;3.20;;;;;;;9.30;100.00;101806.63;4955658;28;20034;-70
2022/02/05 08:46:31;;;;;;;17.52;4.50;;;;;;;9.24;100.00;101817.13;4972530;28;20130;-70
2022/02/05 08:48:57;;;;;;;10.57;2.30;;;;;;;9.04;100.00;101814.72;4954959;28;20055;-66
2022/02/05 08:51:23;;;;;;;23.37;3.70;;;;;;;9.33;100.00;101816.97;4973205;28;20527;-69
2022/02/05 08:53:49;;;;;;;16.40;3.15;;;;;;;9.49;100.00;101823.38;4973454;28;20364;-69
2022/02/05 08:56:15;;;;;;;17.42;2.92;;;;;;;9.50;100.00;101830.38;4973153;28;20035;-70
2022/02/05 08:58:40;;;;;;;16.30;3.80;;;;;;;9.65;100.00;101827.03;4972783;28;20039;-68
2022/02/05 09:01:32;;;;;;;11.07;2.95;;;;;;;10.78;100.00;101828.16;4955838;28;20057;-69
2022/02/05 09:04:11;;;;;;;16.55;3.20;;;;;;;11.47;100.00;101832.00;4958299;28;20447;-70
2022/02/05 09:06:40;;;;;;;13.90;3.95;;;;;;;11.71;100.00;101832.84;4973174;28;20074;-70
2022/02/05 09:14:43;;;;;;;14.63;3.30;;;;;;;13.62;98.15;101855.84;4972636;28;20038;-69
2022/02/05 09:17:09;;;;;;;13.90;3.03;;;;;;;13.08;100.00;101865.09;4972161;28;20768;-69
2022/02/05 09:19:36;;;;;;;21.75;3.45;;;;;;;13.13;99.57;101862.66;4973272;28;20280;-69
2022/02/05 09:22:03;;;;;;;10.83;2.53;;;;;;;13.88;92.57;101868.72;4939711;28;20051;-69
2022/02/05 09:24:29;;;;;;;13.97;4.17;;;;;;;13.57;96.41;101875.22;4971429;28;20768;-69
2022/02/05 09:27:02;;;;;;;11.80;2.65;;;;;;;12.60;100.00;101880.56;4972599;28;20281;-71
